Time;durP1;ratioP1;P1;durP2;ratioP2;P2;SDS_P1;SDS_P2;PMS_P1;PMS_P2;Temp;Humidity;BMP_temperature;BMP_pressure;BME280_temperature;BME280_humidity;BME280_pressure;Samples;Min_cycle;Max_cycle;Signal;HPM_P1;HPM_P2
2022/07/21 00:01:16;;;;;;;7.75;6.72;;;23.90;29.10;;;;;;5091165;28;20213;-72
2022/07/21 00:03:43;;;;;;;8.57;6.80;;;23.80;28.90;;;;;;5091477;28;20209;-74
2022/07/21 00:06:10;;;;;;;6.82;6.25;;;23.80;29.20;;;;;;5090594;28;20263;-76
2022/07/21 00:08:37;;;;;;;6.57;5.78;;;23.70;30.10;;;;;;5090880;28;20241;-72
2022/07/21 00:11:04;;;;;;;6.72;6.05;;;23.70;29.10;;;;;;5090529;28;20205;-72
2022/07/21 00:13:31;;;;;;;8.48;7.10;;;23.70;30.00;;;;;;5090473;28;20237;-74
2022/07/21 00:15:59;;;;;;;8.00;7.30;;;23.60;29.40;;;;;;5091333;28;20255;-72
2022/07/21 00:18:28;;;;;;;9.75;7.40;;;23.60;29.90;;;;;;5091081;28;20282;-72
2022/07/21 00:20:55;;;;;;;10.43;7.35;;;23.50;29.30;;;;;;5091007;28;20201;-70
2022/07/21 00:23:22;;;;;;;8.07;7.35;;;23.40;29.20;;;;;;5090411;28;20665;-71
2022/07/21 00:25:49;;;;;;;8.65;7.85;;;23.40;30.80;;;;;;5090634;28;20202;-72
2022/07/21 00:28:16;;;;;;;7.95;7.28;;;23.30;29.50;;;;;;5090396;28;20270;-71
2022/07/21 00:30:43;;;;;;;8.77;7.53;;;23.30;29.80;;;;;;5090593;28;20669;-71
2022/07/21 00:33:12;;;;;;;10.98;7.68;;;23.20;30.20;;;;;;5090172;28;20232;-76
2022/07/21 00:35:39;;;;;;;10.15;7.88;;;23.20;29.60;;;;;;5092625;28;20205;-70
2022/07/21 00:38:06;;;;;;;9.40;6.68;;;23.10;29.60;;;;;;5097316;28;20254;-72
2022/07/21 00:40:33;;;;;;;8.50;7.70;;;23.10;29.60;;;;;;5086331;28;20210;-70
2022/07/21 00:43:00;;;;;;;8.88;6.20;;;23.00;29.30;;;;;;5078545;28;20255;-68
2022/07/21 00:45:27;;;;;;;7.25;6.55;;;23.10;30.50;;;;;;5080791;28;20210;-71
2022/07/21 00:47:54;;;;;;;8.20;7.20;;;23.10;29.20;;;;;;5095780;28;20201;-70
2022/07/21 00:50:24;;;;;;;7.70;6.07;;;23.00;29.20;;;;;;5092624;28;20258;-71
2022/07/21 00:52:51;;;;;;;7.38;5.95;;;22.90;29.90;;;;;;5096899;28;20247;-70
2022/07/21 00:55:25;;;;;;;6.60;6.03;;;22.80;29.60;;;;;;5096627;28;20701;-70
2022/07/21 00:57:53;;;;;;;6.45;5.40;;;22.80;59.80;;;;;;5096951;28;20205;-77
2022/07/21 01:00:24;;;;;;;8.52;5.85;;;22.80;29.50;;;;;;5096600;28;20262;-70
2022/07/21 01:02:51;;;;;;;7.18;6.43;;;22.70;29.80;;;;;;5097167;28;20715;-71
2022/07/21 01:05:23;;;;;;;5.70;5.20;;;22.70;29.80;;;;;;5096637;28;20745;-78
2022/07/21 01:07:51;;;;;;;7.93;6.85;;;22.70;30.20;;;;;;5097591;28;20254;-77
2022/07/21 01:10:21;;;;;;;6.38;5.78;;;22.60;29.50;;;;;;5096797;28;20638;-77
2022/07/21 01:12:49;;;;;;;6.90;6.30;;;22.60;31.70;;;;;;5096913;28;20614;-74
2022/07/21 01:15:18;;;;;;;8.35;6.53;;;22.60;30.50;;;;;;5085049;28;20202;-75
2022/07/21 01:17:45;;;;;;;9.52;5.68;;;22.60;28.90;;;;;;5095141;28;20664;-80
2022/07/21 01:20:14;;;;;;;6.75;5.10;;;22.60;33.00;;;;;;5096859;28;20209;-75
2022/07/21 01:22:46;;;;;;;6.82;5.55;;;22.50;32.20;;;;;;5096738;28;20673;-71
2022/07/21 01:25:13;;;;;;;6.38;5.75;;;22.50;32.20;;;;;;5096576;28;20747;-71
2022/07/21 01:27:40;;;;;;;5.88;5.22;;;22.40;30.70;;;;;;5096694;28;20206;-72
2022/07/21 01:30:10;;;;;;;7.88;5.18;;;22.40;32.10;;;;;;5096844;28;20205;-73
2022/07/21 01:32:38;;;;;;;6.25;5.20;;;22.40;33.00;;;;;;5096814;28;20312;-71
2022/07/21 01:35:07;;;;;;;9.23;4.45;;;22.50;33.60;;;;;;5096469;28;20205;-72
2022/07/21 01:37:40;;;;;;;6.22;5.25;;;22.50;32.20;;;;;;5096895;28;20750;-70
2022/07/21 01:42:54;;;;;;;7.20;5.57;;;22.40;34.50;;;;;;5097125;28;20228;-77
2022/07/21 01:45:23;;;;;;;6.20;4.75;;;22.40;32.70;;;;;;5096352;28;20209;-75
2022/07/21 01:47:50;;;;;;;5.22;4.63;;;22.30;34.30;;;;;;5093569;28;20219;-71
2022/07/21 01:50:18;;;;;;;6.43;4.97;;;22.30;34.30;;;;;;5078739;28;20255;-71
2022/07/21 01:52:46;;;;;;;7.22;4.32;;;22.30;64.20;;;;;;5093570;28;20233;-73
2022/07/21 01:55:14;;;;;;;5.22;4.68;;;22.30;34.70;;;;;;5092873;28;20757;-73
2022/07/21 01:57:41;;;;;;;7.85;5.13;;;22.20;35.30;;;;;;5093797;28;20205;-73
2022/07/21 02:00:10;;;;;;;5.95;4.97;;;22.30;35.80;;;;;;5093306;28;20202;-75
2022/07/21 02:02:37;;;;;;;6.47;4.13;;;22.30;35.50;;;;;;5093614;28;20209;-71
2022/07/21 02:05:06;;;;;;;5.45;4.32;;;22.30;36.40;;;;;;5092547;28;20205;-70
2022/07/21 02:07:33;;;;;;;4.03;3.72;;;22.30;36.90;;;;;;5093473;28;20206;-70
2022/07/21 02:10:00;;;;;;;6.35;3.90;;;22.30;34.90;;;;;;5093449;28;20263;-73
2022/07/21 02:12:29;;;;;;;5.38;4.32;;;22.20;37.10;;;;;;5093024;28;20229;-71
2022/07/21 02:14:56;;;;;;;4.45;4.05;;;22.20;35.70;;;;;;5093411;28;20201;-73
2022/07/21 02:17:23;;;;;;;5.53;3.67;;;22.10;35.90;;;;;;5092573;28;20254;-74
2022/07/21 02:19:50;;;;;;;4.82;4.15;;;22.10;37.50;;;;;;5092921;28;20217;-72
2022/07/21 02:22:16;;;;;;;4.40;3.88;;;22.10;36.90;;;;;;5092342;28;20206;-75
2022/07/21 02:24:43;;;;;;;5.88;4.70;;;22.10;36.90;;;;;;5093212;28;20206;-72
2022/07/21 02:27:10;;;;;;;4.38;3.97;;;22.00;36.60;;;;;;5092414;28;20205;-73
2022/07/21 02:29:41;;;;;;;6.63;4.75;;;21.90;38.30;;;;;;5092733;28;20677;-71
2022/07/21 02:32:08;;;;;;;4.25;3.95;;;21.90;38.10;;;;;;5092242;28;20210;-71
2022/07/21 02:34:35;;;;;;;5.90;4.25;;;21.90;38.40;;;;;;5092853;28;20266;-71
2022/07/21 02:37:02;;;;;;;5.45;4.30;;;21.90;38.60;;;;;;5091999;28;20237;-71
2022/07/21 02:39:29;;;;;;;4.40;3.53;;;21.70;38.70;;;;;;5092563;28;20217;-71
2022/07/21 02:41:56;;;;;;;6.95;4.53;;;21.80;39.50;;;;;;5092923;28;20205;-72
2022/07/21 02:44:23;;;;;;;5.25;4.10;;;21.70;39.00;;;;;;5092121;28;20205;-71
2022/07/21 02:46:52;;;;;;;4.55;4.03;;;21.70;39.80;;;;;;5092614;28;20205;-71
2022/07/21 02:49:19;;;;;;;6.68;4.53;;;21.70;40.40;;;;;;5081830;28;20210;-72
2022/07/21 02:51:48;;;;;;;5.80;4.13;;;21.70;41.20;;;;;;5090023;28;20621;-76
2022/07/21 02:54:15;;;;;;;4.47;3.85;;;21.70;41.60;;;;;;5093238;28;20233;-71
2022/07/21 02:56:42;;;;;;;9.38;4.50;;;21.70;40.50;;;;;;5093195;28;20231;-71
2022/07/21 02:59:09;;;;;;;4.40;4.00;;;21.60;41.70;;;;;;5092390;28;20214;-72
2022/07/21 03:01:36;;;;;;;4.63;4.22;;;21.60;41.00;;;;;;5092651;28;20216;-74
2022/07/21 03:04:05;;;;;;;4.85;3.55;;;21.50;42.60;;;;;;5091730;28;20209;-71
2022/07/21 03:06:32;;;;;;;11.70;5.53;;;21.40;43.10;;;;;;5091994;28;20205;-71
2022/07/21 03:08:59;;;;;;;5.65;4.10;;;21.40;42.20;;;;;;5092119;28;20269;-72
2022/07/21 03:11:26;;;;;;;5.65;3.80;;;21.50;43.60;;;;;;5092117;28;20636;-71
2022/07/21 03:13:53;;;;;;;4.45;3.72;;;21.40;42.80;;;;;;5091589;28;20334;-71
2022/07/21 03:16:20;;;;;;;5.07;3.78;;;21.30;43.40;;;;;;5091709;28;20202;-71
2022/07/21 03:18:47;;;;;;;3.33;3.13;;;21.30;43.50;;;;;;5091905;28;20206;-72
2022/07/21 03:21:15;;;;;;;5.78;4.45;;;21.30;45.70;;;;;;5091671;28;20206;-73
2022/07/21 03:23:45;;;;;;;5.72;3.72;;;21.30;44.10;;;;;;5092246;28;20254;-76
2022/07/21 03:26:12;;;;;;;5.85;3.78;;;21.30;45.40;;;;;;5091198;28;20237;-74
2022/07/21 03:28:39;;;;;;;5.03;3.95;;;21.20;45.00;;;;;;5091502;28;20205;-71
2022/07/21 03:31:06;;;;;;;4.90;4.50;;;21.20;44.70;;;;;;5091077;28;20665;-71
2022/07/21 03:33:34;;;;;;;4.20;3.25;;;21.30;46.20;;;;;;5091601;28;20233;-72
2022/07/21 03:36:01;;;;;;;4.18;3.72;;;21.30;46.40;;;;;;5091031;28;20201;-72
2022/07/21 03:38:30;;;;;;;4.20;3.72;;;21.30;45.90;;;;;;5091725;28;20206;-71
2022/07/21 03:40:57;;;;;;;5.32;3.45;;;21.20;47.10;;;;;;5091373;28;20643;-71
2022/07/21 03:43:24;;;;;;;5.43;3.35;;;21.30;47.70;;;;;;5091527;28;20212;-72
2022/07/21 03:45:51;;;;;;;4.22;3.45;;;21.20;46.80;;;;;;5091320;28;20266;-75
2022/07/21 03:48:18;;;;;;;4.00;3.20;;;21.20;47.40;;;;;;5088500;28;20205;-74
2022/07/21 03:50:45;;;;;;;6.50;3.65;;;21.20;48.70;;;;;;5079630;28;20234;-72
2022/07/21 03:53:13;;;;;;;3.67;3.28;;;21.20;47.80;;;;;;5090742;28;20350;-73
2022/07/21 03:55:41;;;;;;;5.68;3.72;;;21.20;48.30;;;;;;5091368;28;20262;-76
2022/07/21 03:58:09;;;;;;;7.07;4.40;;;21.20;49.40;;;;;;5090963;28;20270;-72
2022/07/21 04:00:39;;;;;;;5.38;4.05;;;21.20;49.00;;;;;;5090894;28;20561;-72
2022/07/21 04:03:07;;;;;;;4.63;3.40;;;21.20;48.70;;;;;;5091095;28;20201;-71
2022/07/21 04:05:36;;;;;;;3.88;3.33;;;21.10;50.40;;;;;;5081663;28;20264;-78
2022/07/21 04:08:07;;;;;;;3.85;3.05;;;21.10;51.00;;;;;;5075488;28;20206;-72
2022/07/21 04:10:36;;;;;;;5.85;3.30;;;21.10;50.60;;;;;;5076773;28;20201;-70
2022/07/21 04:13:09;;;;;;;4.13;3.15;;;21.10;51.00;;;;;;5076491;28;20229;-71
2022/07/21 04:15:39;;;;;;;5.93;3.78;;;21.10;52.30;;;;;;5078810;28;20674;-71
2022/07/21 04:18:07;;;;;;;3.83;3.13;;;21.00;51.60;;;;;;5076173;28;20202;-74
2022/07/21 04:20:34;;;;;;;4.35;3.78;;;21.10;51.40;;;;;;5076675;28;20274;-70
2022/07/21 04:23:01;;;;;;;6.70;3.13;;;21.20;50.70;;;;;;5078367;28;20202;-70
2022/07/21 04:25:29;;;;;;;6.20;3.08;;;21.20;51.80;;;;;;5076434;28;20198;-72
2022/07/21 04:27:57;;;;;;;6.15;3.55;;;21.20;82.10;;;;;;5078704;28;20210;-72
2022/07/21 04:30:26;;;;;;;6.65;4.03;;;21.20;51.40;;;;;;5090824;28;20204;-74
2022/07/21 04:32:53;;;;;;;6.45;3.17;;;21.20;52.00;;;;;;5078857;28;20256;-72
2022/07/21 04:35:20;;;;;;;4.95;3.40;;;21.10;51.90;;;;;;5077359;28;20251;-78
2022/07/21 04:37:48;;;;;;;5.60;3.30;;;21.00;53.20;;;;;;5081846;28;20622;-74
2022/07/21 04:40:16;;;;;;;5.30;3.75;;;20.90;52.40;;;;;;5086284;28;20253;-77
2022/07/21 04:42:44;;;;;;;4.13;3.13;;;21.00;53.40;;;;;;5084187;28;20248;-75
2022/07/21 04:45:12;;;;;;;3.35;2.88;;;20.90;53.40;;;;;;5086616;28;20212;-74
2022/07/21 04:47:45;;;;;;;3.90;3.17;;;20.80;53.80;;;;;;5086262;28;20217;-73
2022/07/21 04:50:14;;;;;;;3.47;2.80;;;20.80;56.00;;;;;;5071770;28;20623;-73
2022/07/21 04:52:41;;;;;;;2.92;2.72;;;20.90;54.10;;;;;;5071010;28;20210;-72
2022/07/21 04:55:10;;;;;;;3.65;2.63;;;20.80;54.30;;;;;;5072037;28;20269;-74
2022/07/21 04:57:41;;;;;;;3.85;3.33;;;20.80;56.00;;;;;;5070794;28;20206;-72
2022/07/21 05:00:10;;;;;;;3.65;2.95;;;20.90;55.80;;;;;;5073928;28;20205;-75
2022/07/21 05:02:37;;;;;;;9.23;3.10;;;20.80;55.40;;;;;;5073306;28;20206;-71
2022/07/21 05:05:07;;;;;;;5.63;2.83;;;20.80;55.90;;;;;;5076769;28;20205;-73
2022/07/21 05:07:35;;;;;;;4.03;3.05;;;20.90;57.40;;;;;;5072792;28;20715;-75
2022/07/21 05:10:05;;;;;;;5.90;3.38;;;20.90;56.80;;;;;;5075459;28;20205;-75
2022/07/21 05:12:32;;;;;;;9.43;4.28;;;20.90;57.00;;;;;;5083767;28;20217;-71
2022/07/21 05:14:59;;;;;;;6.05;3.50;;;20.90;57.50;;;;;;5083980;28;20236;-71
2022/07/21 05:17:26;;;;;;;5.05;3.10;;;21.00;57.50;;;;;;5070588;28;20260;-75
2022/07/21 05:19:53;;;;;;;7.65;4.03;;;21.00;57.90;;;;;;5069582;28;20206;-74
2022/07/21 05:22:21;;;;;;;6.03;3.35;;;21.00;57.40;;;;;;5071173;28;20271;-74
2022/07/21 05:24:48;;;;;;;8.55;3.33;;;21.10;57.90;;;;;;5073527;28;20210;-74
2022/07/21 05:27:15;;;;;;;4.35;3.15;;;21.20;57.00;;;;;;5072801;28;20225;-75
2022/07/21 05:29:42;;;;;;;5.75;3.20;;;21.10;57.30;;;;;;5073287;28;20263;-75
2022/07/21 05:32:09;;;;;;;6.90;3.47;;;21.30;57.30;;;;;;5081295;28;20206;-77
2022/07/21 05:34:36;;;;;;;3.75;2.80;;;21.30;57.00;;;;;;5087941;28;20233;-74
2022/07/21 05:37:03;;;;;;;3.45;3.13;;;21.30;57.40;;;;;;5087331;28;20202;-74
2022/07/21 05:39:32;;;;;;;3.78;2.65;;;21.20;57.00;;;;;;5088250;28;20692;-76
2022/07/21 05:41:59;;;;;;;6.38;3.67;;;21.30;57.90;;;;;;5084363;28;20248;-74
2022/07/21 05:44:26;;;;;;;7.57;2.72;;;21.20;58.90;;;;;;5089590;28;20252;-74
2022/07/21 05:46:53;;;;;;;6.30;3.42;;;21.30;58.90;;;;;;5087048;28;20214;-75
2022/07/21 05:49:20;;;;;;;3.78;2.65;;;21.30;56.60;;;;;;5087569;28;20729;-75
2022/07/21 05:51:47;;;;;;;5.47;3.33;;;21.30;57.90;;;;;;5075182;28;20642;-76
2022/07/21 05:54:14;;;;;;;6.38;3.70;;;21.40;58.50;;;;;;5071660;28;20802;-75
2022/07/21 05:56:42;;;;;;;3.80;2.95;;;21.70;58.30;;;;;;5071934;28;20732;-75
2022/07/21 05:59:09;;;;;;;4.00;2.97;;;21.90;57.20;;;;;;5072855;28;20243;-75
2022/07/21 06:01:36;;;;;;;3.75;2.22;;;21.90;57.20;;;;;;5081985;28;20258;-74
2022/07/21 06:04:03;;;;;;;3.60;2.88;;;21.90;57.10;;;;;;5093446;28;20209;-74
2022/07/21 06:06:30;;;;;;;3.47;2.67;;;22.20;56.60;;;;;;5093237;28;20214;-74
2022/07/21 06:08:57;;;;;;;5.85;3.03;;;22.00;57.00;;;;;;5093267;28;20205;-78
2022/07/21 06:11:24;;;;;;;3.53;2.85;;;22.10;57.10;;;;;;5092547;28;20613;-76
2022/07/21 06:13:53;;;;;;;3.90;2.50;;;22.20;58.30;;;;;;5092767;28;20241;-76
2022/07/21 06:16:20;;;;;;;6.53;3.95;;;22.10;56.70;;;;;;5092856;28;20209;-81
2022/07/21 06:18:47;;;;;;;8.27;3.00;;;21.90;56.10;;;;;;5092108;28;20587;-77
2022/07/21 06:21:14;;;;;;;6.53;3.10;;;21.80;57.40;;;;;;5092608;28;20669;-78
2022/07/21 06:23:41;;;;;;;4.25;3.47;;;22.10;56.90;;;;;;5092461;28;20221;-77
2022/07/21 06:26:08;;;;;;;5.95;2.80;;;22.20;56.50;;;;;;5092877;28;20205;-76
2022/07/21 06:28:34;;;;;;;6.60;2.50;;;22.40;56.20;;;;;;5093207;28;20254;-71
2022/07/21 06:31:03;;;;;;;6.72;2.72;;;22.20;56.00;;;;;;5093181;28;20201;-71
2022/07/21 06:33:30;;;;;;;3.00;2.53;;;22.20;56.40;;;;;;5091794;28;20263;-71
2022/07/21 06:35:57;;;;;;;5.68;2.65;;;22.20;56.50;;;;;;5092780;28;20202;-73
2022/07/21 06:38:24;;;;;;;5.00;3.05;;;22.20;57.50;;;;;;5092097;28;20210;-74
2022/07/21 06:40:51;;;;;;;5.55;2.80;;;22.40;56.80;;;;;;5092767;28;20205;-73
2022/07/21 06:43:18;;;;;;;7.20;3.65;;;22.50;56.20;;;;;;5092472;28;20251;-74
2022/07/21 06:45:45;;;;;;;7.18;3.67;;;22.70;55.90;;;;;;5092993;28;20294;-76
2022/07/21 06:48:13;;;;;;;6.88;2.40;;;22.70;57.70;;;;;;5090474;28;20633;-74
2022/07/21 06:50:40;;;;;;;4.05;2.33;;;22.80;56.60;;;;;;5080197;28;20248;-82
2022/07/21 06:53:08;;;;;;;5.03;3.00;;;22.90;55.90;;;;;;5092072;28;20265;-74
2022/07/21 06:55:35;;;;;;;6.38;3.15;;;23.00;56.80;;;;;;5092159;28;20233;-75
2022/07/21 06:58:10;;;;;;;4.13;2.35;;;23.00;55.20;;;;;;5092893;28;20206;-75
2022/07/21 07:00:37;;;;;;;4.82;3.10;;;23.20;56.10;;;;;;5092130;28;20209;-74
2022/07/21 07:03:04;;;;;;;4.65;3.38;;;23.20;54.10;;;;;;5092137;28;20262;-73
2022/07/21 07:05:32;;;;;;;7.88;2.75;;;23.40;54.70;;;;;;5091721;28;20271;-73
2022/07/21 07:07:59;;;;;;;6.03;3.17;;;23.50;55.00;;;;;;5092571;28;20205;-77
2022/07/21 07:10:26;;;;;;;5.78;3.25;;;23.60;54.10;;;;;;5091745;28;20251;-76
2022/07/21 07:12:54;;;;;;;5.18;2.72;;;23.40;53.10;;;;;;5092058;28;20221;-78
2022/07/21 07:15:21;;;;;;;5.60;3.90;;;23.60;53.90;;;;;;5091451;28;20282;-77
2022/07/21 07:17:48;;;;;;;4.20;3.17;;;23.80;53.90;;;;;;5091635;28;20206;-78
2022/07/21 07:20:15;;;;;;;5.05;2.92;;;23.90;53.30;;;;;;5091903;28;20202;-78
2022/07/21 07:22:43;;;;;;;8.07;2.85;;;24.00;53.60;;;;;;5091711;28;20254;-77
2022/07/21 07:25:11;;;;;;;7.05;3.60;;;24.00;52.40;;;;;;5091600;28;20213;-78
2022/07/21 07:27:38;;;;;;;4.22;3.38;;;24.10;51.70;;;;;;5091652;28;20215;-74
2022/07/21 07:30:06;;;;;;;11.68;3.38;;;24.00;51.70;;;;;;5091588;28;20205;-70
2022/07/21 07:32:33;;;;;;;4.35;2.33;;;24.10;52.30;;;;;;5091858;28;20205;-73
2022/07/21 07:35:00;;;;;;;5.18;3.05;;;24.30;52.10;;;;;;5091737;28;20717;-75
2022/07/21 07:37:27;;;;;;;4.93;3.35;;;24.20;51.60;;;;;;5087761;28;20254;-76
2022/07/21 07:39:56;;;;;;;8.70;3.55;;;24.40;50.80;;;;;;5082165;28;20263;-71
2022/07/21 07:42:23;;;;;;;4.55;2.95;;;24.80;51.60;;;;;;5081112;28;20206;-74
2022/07/21 07:44:50;;;;;;;6.05;3.38;;;25.00;50.20;;;;;;5085462;28;20205;-74
2022/07/21 07:47:17;;;;;;;8.57;2.95;;;25.30;50.00;;;;;;5081251;28;20210;-72
2022/07/21 07:49:44;;;;;;;7.18;3.38;;;25.00;48.80;;;;;;5077109;28;20210;-73
2022/07/21 07:52:11;;;;;;;9.10;3.90;;;25.20;49.60;;;;;;5090018;28;20688;-70
2022/07/21 07:54:38;;;;;;;4.20;2.95;;;25.20;48.10;;;;;;5074928;28;20226;-72
2022/07/21 07:57:06;;;;;;;10.15;3.08;;;25.20;49.20;;;;;;5089990;28;20201;-71
2022/07/21 07:59:33;;;;;;;7.82;3.67;;;25.50;50.30;;;;;;5072152;28;20263;-73
2022/07/21 08:02:00;;;;;;;4.07;2.80;;;25.70;48.40;;;;;;5073985;28;20206;-70
2022/07/21 08:04:27;;;;;;;5.20;3.83;;;25.50;46.50;;;;;;5072372;28;20253;-75
2022/07/21 08:06:54;;;;;;;5.15;3.50;;;25.60;47.80;;;;;;5075394;28;20263;-75
2022/07/21 08:09:21;;;;;;;3.47;3.08;;;26.00;48.30;;;;;;5073299;28;20209;-76
2022/07/21 08:11:48;;;;;;;4.75;3.58;;;26.40;47.70;;;;;;5077021;28;20209;-75
2022/07/21 08:14:17;;;;;;;4.95;3.15;;;28.40;46.30;;;;;;5075981;28;20237;-76
2022/07/21 08:16:45;;;;;;;3.90;2.92;;;27.40;43.90;;;;;;5073532;28;20209;-76
2022/07/21 08:19:12;;;;;;;5.65;3.47;;;26.70;45.10;;;;;;5072469;28;20202;-73
2022/07/21 08:21:39;;;;;;;8.15;3.85;;;26.80;43.20;;;;;;5083531;28;20205;-74
2022/07/21 08:24:08;;;;;;;8.48;3.90;;;26.70;59.70;;;;;;5081642;28;20206;-76
2022/07/21 08:26:35;;;;;;;5.60;3.25;;;26.50;44.40;;;;;;5083799;28;20278;-73
2022/07/21 08:29:02;;;;;;;5.82;3.50;;;26.60;44.20;;;;;;5074748;28;20677;-75
2022/07/21 08:31:30;;;;;;;5.53;3.80;;;27.20;45.20;;;;;;5069762;28;20666;-78
2022/07/21 08:33:57;;;;;;;3.95;3.22;;;27.30;42.70;;;;;;5070304;28;20226;-77
2022/07/21 08:36:24;;;;;;;6.25;3.50;;;27.40;41.90;;;;;;5070021;28;20233;-75
2022/07/21 08:38:51;;;;;;;5.90;3.00;;;28.10;42.30;;;;;;5070268;28;20210;-76
2022/07/21 08:41:18;;;;;;;6.72;3.67;;;27.90;38.90;;;;;;5069987;28;20202;-75
2022/07/21 08:43:47;;;;;;;8.60;3.28;;;27.70;40.90;;;;;;5070581;28;20252;-74
2022/07/21 08:46:16;;;;;;;6.40;3.83;;;28.10;39.30;;;;;;5075956;28;20586;-73
2022/07/21 08:48:44;;;;;;;3.70;3.35;;;27.70;39.80;;;;;;5075427;28;20206;-73
2022/07/21 08:51:13;;;;;;;5.75;3.35;;;27.70;37.60;;;;;;5083344;28;20262;-71
2022/07/21 08:53:40;;;;;;;8.85;5.10;;;27.60;40.70;;;;;;5090183;28;20202;-70
2022/07/21 08:56:07;;;;;;;6.03;3.83;;;27.80;38.90;;;;;;5090539;28;20716;-69
2022/07/21 08:58:35;;;;;;;5.85;3.60;;;27.80;37.90;;;;;;5094906;28;20198;-70
